Time;durP1;ratioP1;P1;durP2;ratioP2;P2;SDS_P1;SDS_P2;PMS_P1;PMS_P2;Temp;Humidity;BMP_temperature;BMP_pressure;BME280_temperature;BME280_humidity;BME280_pressure;Samples;Min_cycle;Max_cycle;Signal;HPM_P1;HPM_P2
2022/02/05 00:02:07;;;;;;;1.97;1.87;;;7.90;99.90;;;;;;10354482;28;20207;-78
2022/02/05 00:07:10;;;;;;;1.93;1.83;;;7.90;99.90;;;;;;10367107;28;20698;-78
2022/02/05 00:12:29;;;;;;;2.30;2.20;;;8.00;99.90;;;;;;10375535;28;20567;-78
2022/02/05 00:38:58;;;;;;;2.20;1.90;;;7.60;99.90;;;;;;10350791;28;20205;-79
2022/02/05 00:44:03;;;;;;;2.00;1.90;;;7.50;99.90;;;;;;10368725;28;20592;-78
2022/02/05 00:49:05;;;;;;;3.27;1.87;;;7.50;99.90;;;;;;10369352;28;20209;-78
2022/02/05 00:54:11;;;;;;;2.37;2.20;;;7.40;99.90;;;;;;10371939;28;20265;-78
2022/02/05 00:59:16;;;;;;;2.23;2.03;;;7.30;99.90;;;;;;10354814;28;20234;-79
2022/02/05 01:04:18;;;;;;;2.73;2.10;;;7.20;99.90;;;;;;10365607;28;20230;-79
2022/02/05 01:09:23;;;;;;;2.77;2.30;;;7.10;99.90;;;;;;10360740;28;20221;-79
2022/02/05 01:14:30;;;;;;;3.73;1.80;;;7.00;99.90;;;;;;10375664;28;20215;-79
2022/02/05 01:20:03;;;;;;;2.17;1.90;;;7.00;99.90;;;;;;10375932;28;20206;-79
2022/02/05 01:25:05;;;;;;;3.00;2.00;;;6.90;99.90;;;;;;10373036;28;20250;-78
2022/02/05 01:30:20;;;;;;;3.43;2.27;;;6.90;99.90;;;;;;10372835;28;20217;-79
2022/02/05 01:35:31;;;;;;;2.17;1.90;;;6.80;99.90;;;;;;10367267;28;20251;-78
2022/02/05 01:51:39;;;;;;;10.37;4.90;;;6.60;99.90;;;;;;10352604;28;20214;-78
2022/02/05 01:56:47;;;;;;;4.87;3.10;;;6.50;99.90;;;;;;10364048;28;20229;-77
2022/02/05 02:07:24;;;;;;;2.63;2.03;;;6.40;99.90;;;;;;10413913;23;20237;-81
2022/02/05 02:12:37;;;;;;;3.43;2.10;;;6.40;99.90;;;;;;10396324;28;20261;-82
2022/02/05 02:18:10;;;;;;;2.10;2.00;;;6.40;99.90;;;;;;10402218;28;20226;-80
2022/02/05 02:23:27;;;;;;;4.07;2.57;;;6.40;99.90;;;;;;10392455;28;20861;-80
2022/02/05 02:28:43;;;;;;;2.23;2.00;;;6.30;99.90;;;;;;10387301;28;20197;-82
2022/02/05 02:33:49;;;;;;;2.93;1.93;;;6.30;99.90;;;;;;10396313;28;20271;-82
2022/02/05 02:38:57;;;;;;;3.57;2.50;;;6.20;99.90;;;;;;10405166;28;20268;-82
2022/02/05 02:43:59;;;;;;;4.43;3.13;;;6.20;99.90;;;;;;10405700;28;20297;-81
2022/02/05 02:49:03;;;;;;;2.80;2.60;;;6.20;99.90;;;;;;10397160;28;20340;-82
2022/02/05 02:59:29;;;;;;;2.63;2.43;;;6.10;99.90;;;;;;10413699;28;20293;-79
2022/02/05 03:04:31;;;;;;;4.33;2.77;;;6.00;99.90;;;;;;10397912;28;20873;-81
2022/02/05 03:09:35;;;;;;;4.07;3.20;;;6.00;99.90;;;;;;10415788;28;20229;-80
2022/02/05 03:14:37;;;;;;;4.73;2.60;;;5.90;99.90;;;;;;10415854;28;20627;-80
2022/02/05 03:19:39;;;;;;;3.20;2.47;;;5.90;99.90;;;;;;10416485;28;20198;-80
2022/02/05 03:24:43;;;;;;;2.73;2.53;;;5.90;99.90;;;;;;10395924;28;20316;-81
2022/02/05 03:29:48;;;;;;;3.23;2.80;;;5.80;99.90;;;;;;10394540;28;20206;-80
2022/02/05 03:34:50;;;;;;;3.23;2.90;;;5.70;99.90;;;;;;10419579;28;20306;-79
2022/02/05 03:39:53;;;;;;;3.30;2.73;;;5.70;99.90;;;;;;10403956;28;20661;-81
2022/02/05 03:44:56;;;;;;;7.13;3.47;;;5.70;99.90;;;;;;10410028;28;20221;-80
2022/02/05 03:49:58;;;;;;;3.37;3.03;;;5.60;99.90;;;;;;10412656;28;20204;-80
2022/02/05 03:55:01;;;;;;;2.63;2.43;;;5.50;99.90;;;;;;10426081;28;20648;-82
2022/02/05 04:00:07;;;;;;;4.40;3.17;;;5.40;99.90;;;;;;10422425;28;20552;-82
2022/02/05 04:05:10;;;;;;;4.20;3.40;;;5.40;99.90;;;;;;10415269;28;20807;-81
2022/02/05 04:10:16;;;;;;;4.73;3.47;;;5.30;99.90;;;;;;10416109;28;20206;-82
2022/02/05 04:20:39;;;;;;;4.03;2.80;;;5.10;99.90;;;;;;10373679;28;20597;-82
2022/02/05 04:25:43;;;;;;;4.00;3.00;;;5.20;99.90;;;;;;10401832;28;20224;-82
2022/02/05 04:30:45;;;;;;;4.53;3.20;;;5.10;99.90;;;;;;10399020;28;20202;-83
2022/02/05 04:35:47;;;;;;;4.43;3.00;;;5.20;99.90;;;;;;10417901;28;20222;-83
2022/02/05 04:40:55;;;;;;;2.80;2.60;;;5.20;99.90;;;;;;10403138;28;20206;-83
2022/02/05 04:46:22;;;;;;;4.30;2.80;;;5.30;99.90;;;;;;10412678;28;20222;-82
2022/02/05 04:51:44;;;;;;;3.43;3.13;;;5.30;99.90;;;;;;10410729;28;20244;-83
2022/02/05 04:56:56;;;;;;;3.57;3.27;;;5.40;99.90;;;;;;10413955;28;20237;-81
2022/02/05 05:02:18;;;;;;;5.20;4.70;;;5.40;99.90;;;;;;10420485;28;20202;-82
2022/02/05 05:12:53;;;;;;;6.27;3.73;;;5.50;99.90;;;;;;10386917;28;20197;-83
2022/02/05 05:23:14;;;;;;;3.00;2.80;;;5.60;99.90;;;;;;10417281;28;20217;-82
2022/02/05 05:28:18;;;;;;;3.80;2.93;;;5.60;99.90;;;;;;10421347;28;20204;-82
2022/02/05 05:33:20;;;;;;;2.97;2.70;;;5.80;99.90;;;;;;10378081;28;20214;-80
2022/02/05 05:38:22;;;;;;;4.20;2.57;;;5.90;99.90;;;;;;10403002;28;20222;-81
2022/02/05 05:43:36;;;;;;;5.60;2.97;;;6.00;99.90;;;;;;10403777;28;20237;-81
2022/02/05 05:48:55;;;;;;;3.13;2.50;;;6.10;99.90;;;;;;10397178;28;20492;-81
2022/02/05 05:53:57;;;;;;;4.10;2.80;;;6.10;99.90;;;;;;10413336;28;20285;-81
2022/02/05 05:59:01;;;;;;;5.30;2.63;;;6.10;99.90;;;;;;10411946;28;20218;-81
2022/02/05 06:04:03;;;;;;;2.83;2.50;;;6.20;99.90;;;;;;10423967;28;20234;-81
2022/02/05 06:09:05;;;;;;;2.60;2.40;;;6.20;99.90;;;;;;10410843;28;20198;-81
2022/02/05 06:14:09;;;;;;;3.23;2.60;;;6.20;99.90;;;;;;10394568;28;20222;-83
2022/02/05 06:19:11;;;;;;;3.80;2.80;;;6.20;99.90;;;;;;10417331;28;20215;-81
2022/02/05 06:24:13;;;;;;;2.70;2.50;;;6.20;99.90;;;;;;10429830;28;20221;-83
2022/02/05 06:29:18;;;;;;;6.60;3.10;;;6.20;99.90;;;;;;10430899;28;20191;-82
2022/02/05 06:34:20;;;;;;;3.30;3.00;;;6.30;99.90;;;;;;10408791;28;20300;-81
2022/02/05 06:39:23;;;;;;;4.03;3.30;;;6.20;99.90;;;;;;10387389;28;20308;-82
2022/02/05 06:44:27;;;;;;;3.43;3.10;;;6.20;99.90;;;;;;10419185;28;20292;-83
2022/02/05 06:49:30;;;;;;;4.23;3.33;;;6.20;99.90;;;;;;10426673;28;20233;-82
2022/02/05 06:54:32;;;;;;;3.50;3.10;;;6.10;99.90;;;;;;10406283;28;20224;-81
2022/02/05 06:59:36;;;;;;;3.53;3.07;;;6.20;99.90;;;;;;10422796;28;20655;-81
2022/02/05 07:04:38;;;;;;;3.83;2.80;;;6.20;99.90;;;;;;10415976;28;20320;-83
2022/02/05 07:09:40;;;;;;;3.43;2.70;;;6.20;99.90;;;;;;10420829;28;20281;-82
2022/02/05 07:14:56;;;;;;;3.37;3.00;;;6.20;99.90;;;;;;10420113;28;20225;-83
2022/02/05 07:20:04;;;;;;;4.30;2.80;;;6.20;99.90;;;;;;10393162;28;20206;-82
2022/02/05 07:30:36;;;;;;;4.80;2.57;;;6.30;99.90;;;;;;10405547;28;20217;-81
2022/02/05 07:35:39;;;;;;;5.67;3.43;;;6.30;99.90;;;;;;10405388;28;20578;-82
2022/02/05 07:40:41;;;;;;;2.97;2.67;;;6.20;99.90;;;;;;10415076;28;20201;-82
2022/02/05 07:45:44;;;;;;;3.53;2.27;;;6.30;99.90;;;;;;10417289;28;20216;-82
2022/02/05 07:50:46;;;;;;;2.83;2.60;;;6.30;99.90;;;;;;10400411;28;20198;-84
2022/02/05 07:55:48;;;;;;;3.97;2.80;;;6.40;99.90;;;;;;10403108;28;20221;-83
2022/02/05 08:00:53;;;;;;;3.47;2.97;;;6.30;99.90;;;;;;10421472;28;20212;-84
2022/02/05 08:05:56;;;;;;;5.47;3.80;;;6.30;99.90;;;;;;10422612;22;20257;-78
2022/02/05 08:11:01;;;;;;;5.00;2.63;;;6.30;99.90;;;;;;10414727;28;20206;-78
2022/02/05 08:16:22;;;;;;;5.13;2.47;;;6.20;99.90;;;;;;10419696;28;20754;-78
2022/02/05 08:21:24;;;;;;;2.70;2.50;;;6.10;99.90;;;;;;10419814;28;20211;-78
2022/02/05 08:26:30;;;;;;;4.77;2.77;;;6.10;99.90;;;;;;10400586;28;20312;-78
2022/02/05 08:31:33;;;;;;;3.90;1.83;;;6.10;99.90;;;;;;10407283;28;20245;-77
2022/02/05 08:36:41;;;;;;;3.73;2.37;;;6.10;99.90;;;;;;10380125;28;20325;-78
2022/02/05 08:41:47;;;;;;;3.30;2.60;;;6.10;99.90;;;;;;10382151;28;20280;-78
2022/02/05 08:46:54;;;;;;;6.70;3.10;;;6.10;99.90;;;;;;10365620;28;20238;-77
2022/02/05 08:51:59;;;;;;;6.40;2.90;;;6.20;99.90;;;;;;10396987;28;20669;-79
2022/02/05 08:57:04;;;;;;;4.00;2.77;;;6.20;99.90;;;;;;10399132;28;20227;-78
2022/02/05 09:02:14;;;;;;;8.53;2.40;;;6.20;99.90;;;;;;10399903;28;20198;-77
2022/02/05 09:07:17;;;;;;;6.87;2.70;;;6.30;99.90;;;;;;10396093;28;20215;-78
2022/02/05 09:12:33;;;;;;;2.60;2.30;;;6.40;99.90;;;;;;10396519;28;20206;-79
2022/02/05 09:17:37;;;;;;;3.10;2.30;;;6.50;99.90;;;;;;10380759;28;20721;-78
2022/02/05 09:22:39;;;;;;;3.97;2.30;;;6.50;99.90;;;;;;10381205;28;20617;-78
2022/02/05 09:27:45;;;;;;;2.87;2.63;;;6.70;99.90;;;;;;10385798;28;20224;-79
2022/02/05 09:32:48;;;;;;;3.90;2.20;;;6.80;99.90;;;;;;10394183;28;20207;-77
2022/02/05 09:37:50;;;;;;;4.73;2.70;;;6.90;99.90;;;;;;10393073;28;20235;-77
2022/02/05 09:42:55;;;;;;;4.77;2.70;;;7.00;99.90;;;;;;10372802;28;20209;-77
2022/02/05 09:47:58;;;;;;;2.93;2.63;;;7.10;99.90;;;;;;10390406;28;20264;-78
2022/02/05 09:53:13;;;;;;;4.47;2.30;;;7.30;99.90;;;;;;10407078;28;20212;-76
2022/02/05 09:58:18;;;;;;;4.83;2.23;;;7.30;99.90;;;;;;10409704;28;20217;-79
2022/02/05 10:03:26;;;;;;;2.70;1.90;;;7.40;99.90;;;;;;10418871;28;20584;-79
2022/02/05 10:08:28;;;;;;;2.00;1.80;;;7.50;99.90;;;;;;10401663;28;20218;-78
2022/02/05 10:13:32;;;;;;;2.53;2.20;;;7.60;99.90;;;;;;10413742;28;20225;-79
2022/02/05 10:18:37;;;;;;;5.13;2.40;;;7.70;99.00;;;;;;10415595;28;20222;-79
2022/02/05 10:23:54;;;;;;;2.97;2.00;;;7.60;98.30;;;;;;10417167;28;20227;-79
2022/02/05 10:29:07;;;;;;;3.33;2.30;;;7.60;98.80;;;;;;10413829;28;20304;-78
2022/02/05 10:34:18;;;;;;;4.63;2.20;;;7.50;99.90;;;;;;10401453;28;20265;-78
2022/02/05 10:39:40;;;;;;;5.40;2.33;;;7.60;98.70;;;;;;10408205;28;20759;-80
2022/02/05 10:45:03;;;;;;;3.17;2.30;;;7.70;99.90;;;;;;10417853;28;20222;-78
2022/02/05 10:50:07;;;;;;;4.63;1.97;;;7.80;99.10;;;;;;10411218;28;20222;-77
2022/02/05 10:55:19;;;;;;;2.37;1.90;;;7.90;99.10;;;;;;10377078;28;20226;-77
2022/02/05 11:05:51;;;;;;;7.90;2.70;;;8.10;98.70;;;;;;10410061;28;20230;-77
2022/02/05 11:11:38;;;;;;;2.30;2.10;;;8.20;97.60;;;;;;10408812;28;20198;-79
2022/02/05 11:21:44;;;;;;;2.47;1.80;;;8.30;97.70;;;;;;10388788;28;20195;-78
2022/02/05 11:26:47;;;;;;;1.90;1.57;;;8.40;98.90;;;;;;10416495;28;20218;-78
2022/02/05 11:31:54;;;;;;;4.37;1.80;;;8.50;98.30;;;;;;10386795;28;20276;-78
2022/02/05 11:37:05;;;;;;;2.53;1.50;;;8.50;96.90;;;;;;10409470;28;20253;-78
2022/02/05 11:42:26;;;;;;;3.40;1.80;;;8.50;95.70;;;;;;10378183;28;20206;-78
2022/02/05 11:47:32;;;;;;;8.87;2.07;;;8.50;97.60;;;;;;10411698;28;20688;-79
2022/02/05 11:52:58;;;;;;;2.50;1.67;;;8.50;96.90;;;;;;10419949;28;20197;-79
2022/02/05 11:58:01;;;;;;;3.43;2.00;;;8.60;97.70;;;;;;10400486;28;20247;-79
2022/02/05 12:03:37;;;;;;;4.53;2.33;;;8.70;96.30;;;;;;10417529;28;20202;-79
2022/02/05 12:08:44;;;;;;;1.97;1.50;;;8.80;96.30;;;;;;10344625;28;20210;-80
2022/02/05 12:13:46;;;;;;;1.60;1.50;;;8.80;94.60;;;;;;10421926;28;20217;-80
2022/02/05 12:19:15;;;;;;;2.83;1.23;;;8.80;95.20;;;;;;10421750;28;20221;-79
2022/02/05 12:29:31;;;;;;;1.07;0.93;;;8.70;94.50;;;;;;10417868;28;20559;-78
2022/02/05 12:34:35;;;;;;;3.70;3.37;;;8.60;91.70;;;;;;10402281;28;20221;-80
2022/02/05 12:39:39;;;;;;;2.43;1.80;;;8.60;95.80;;;;;;10421205;28;20222;-79
2022/02/05 12:44:42;;;;;;;2.93;2.00;;;8.60;94.60;;;;;;10423104;28;20221;-79
2022/02/05 12:49:52;;;;;;;4.07;1.73;;;8.50;95.80;;;;;;10417437;28;20252;-80
2022/02/05 12:54:58;;;;;;;2.70;1.60;;;8.60;94.20;;;;;;10418855;28;20737;-80
2022/02/05 13:00:06;;;;;;;5.13;1.40;;;8.60;96.30;;;;;;10419426;28;20597;-80
2022/02/05 13:05:08;;;;;;;4.57;2.30;;;8.60;95.60;;;;;;10420358;28;20312;-80
2022/02/05 13:10:12;;;;;;;2.17;1.97;;;8.60;94.50;;;;;;10397643;28;20202;-77
2022/02/05 13:15:22;;;;;;;2.80;1.60;;;8.60;95.50;;;;;;10405619;28;20693;-79
2022/02/05 13:26:10;;;;;;;2.30;1.80;;;8.60;94.70;;;;;;10405702;28;20285;-79
2022/02/05 13:36:45;;;;;;;2.23;1.40;;;8.70;93.90;;;;;;10412242;28;20631;-79
2022/02/05 13:41:54;;;;;;;1.87;1.77;;;8.70;93.70;;;;;;10411460;28;20202;-79
2022/02/05 13:47:04;;;;;;;2.50;2.20;;;8.70;94.10;;;;;;10395724;28;20223;-80
2022/02/05 13:52:11;;;;;;;3.17;1.80;;;8.70;95.60;;;;;;10416568;28;20204;-78
2022/02/05 13:57:15;;;;;;;5.60;1.93;;;8.70;93.80;;;;;;10410716;28;20222;-79
2022/02/05 14:02:20;;;;;;;2.57;1.60;;;8.70;96.20;;;;;;10423943;28;20273;-78
2022/02/05 14:07:26;;;;;;;1.50;1.40;;;8.70;95.70;;;;;;10422995;28;20314;-80
2022/02/05 14:12:29;;;;;;;2.33;1.80;;;8.70;95.80;;;;;;10395446;28;20220;-79
2022/02/05 14:17:31;;;;;;;2.83;1.90;;;8.70;95.20;;;;;;10415314;28;20389;-78
2022/02/05 14:22:36;;;;;;;2.70;2.07;;;8.70;96.20;;;;;;10413230;28;20202;-79
2022/02/05 14:28:00;;;;;;;3.17;2.17;;;8.70;96.40;;;;;;10414524;28;20214;-79
2022/02/05 14:33:06;;;;;;;2.47;2.17;;;8.70;97.10;;;;;;10408691;28;20236;-80
2022/02/05 14:43:29;;;;;;;1.60;1.43;;;8.80;95.70;;;;;;10411985;28;20573;-79
2022/02/05 14:48:31;;;;;;;3.00;1.80;;;8.80;95.70;;;;;;10402238;28;20198;-78
2022/02/05 14:53:33;;;;;;;2.57;1.93;;;8.90;95.40;;;;;;10416360;28;20228;-76
2022/02/05 14:58:36;;;;;;;1.70;1.60;;;9.10;92.60;;;;;;10409679;28;20578;-78
2022/02/05 15:03:44;;;;;;;2.90;1.30;;;9.00;92.50;;;;;;10398960;28;20225;-78
2022/02/05 15:08:46;;;;;;;2.10;1.90;;;8.90;92.10;;;;;;10413691;28;20198;-78
2022/02/05 15:13:50;;;;;;;3.90;1.50;;;8.80;91.40;;;;;;10414895;28;20590;-79
2022/02/05 15:18:53;;;;;;;1.70;1.60;;;8.70;91.80;;;;;;10401898;28;20214;-78
2022/02/05 15:23:57;;;;;;;3.13;2.17;;;8.70;92.50;;;;;;10408582;28;20225;-77
2022/02/05 15:29:02;;;;;;;3.20;1.87;;;8.60;93.40;;;;;;10399082;28;20209;-78
2022/02/05 15:34:06;;;;;;;2.10;1.63;;;8.60;93.30;;;;;;10411315;28;20245;-78
2022/02/05 15:39:15;;;;;;;1.30;1.10;;;8.50;93.80;;;;;;10412336;28;20296;-78
2022/02/05 15:44:19;;;;;;;2.87;1.20;;;8.50;93.30;;;;;;10413508;28;20257;-78
2022/02/05 15:49:21;;;;;;;3.30;2.10;;;8.50;93.00;;;;;;10403921;28;20274;-77
2022/02/05 15:54:26;;;;;;;1.63;1.53;;;8.40;93.80;;;;;;10411438;28;20232;-77
2022/02/05 15:59:49;;;;;;;3.70;1.70;;;8.40;95.30;;;;;;10411734;28;20214;-78
2022/02/05 16:04:51;;;;;;;2.53;1.40;;;8.40;92.70;;;;;;10409053;28;20276;-78
2022/02/05 16:09:53;;;;;;;3.80;2.20;;;8.30;93.90;;;;;;10411253;28;20198;-78
2022/02/05 16:14:56;;;;;;;4.07;2.33;;;8.30;91.80;;;;;;10402426;28;20248;-77
2022/02/05 16:19:59;;;;;;;2.37;1.90;;;8.20;93.60;;;;;;10409712;28;20284;-78
2022/02/05 16:25:01;;;;;;;6.13;4.13;;;8.10;93.60;;;;;;10410882;28;20250;-78
2022/02/05 16:30:05;;;;;;;2.47;1.80;;;8.10;93.70;;;;;;10412147;28;20316;-78
2022/02/05 16:35:11;;;;;;;1.80;1.57;;;8.00;93.60;;;;;;10406932;28;20684;-78
2022/02/05 16:40:15;;;;;;;2.43;2.23;;;7.90;93.60;;;;;;10392692;28;20222;-78
2022/02/05 16:45:20;;;;;;;1.90;1.70;;;7.90;93.00;;;;;;10414202;28;20222;-78
2022/02/05 16:50:25;;;;;;;3.23;2.27;;;7.80;93.00;;;;;;10409351;28;20228;-78
2022/02/05 16:55:27;;;;;;;2.70;2.10;;;7.80;94.00;;;;;;10410291;28;20312;-79
2022/02/05 17:00:33;;;;;;;2.47;1.80;;;7.80;94.00;;;;;;10404658;28;20313;-80
2022/02/05 17:05:40;;;;;;;4.73;2.60;;;7.70;94.10;;;;;;10386996;28;20724;-77
2022/02/05 17:10:44;;;;;;;4.57;2.40;;;7.70;94.00;;;;;;10402170;28;20202;-78
2022/02/05 17:15:48;;;;;;;4.50;3.13;;;7.70;94.70;;;;;;10395691;28;20222;-77
2022/02/05 17:20:53;;;;;;;3.03;2.83;;;7.70;94.70;;;;;;10409108;28;20226;-77
2022/02/05 17:25:55;;;;;;;3.47;2.73;;;7.70;94.30;;;;;;10410624;28;20271;-77
2022/02/05 17:30:59;;;;;;;12.03;8.60;;;7.60;95.00;;;;;;10404588;28;20201;-78
2022/02/05 17:36:03;;;;;;;5.50;5.00;;;7.50;94.80;;;;;;10406331;28;20557;-78
2022/02/05 17:41:05;;;;;;;4.50;3.30;;;7.30;95.40;;;;;;10408103;28;20274;-77
2022/02/05 17:46:09;;;;;;;3.40;3.10;;;7.20;95.00;;;;;;10385918;28;20220;-80
2022/02/05 17:51:14;;;;;;;4.97;4.27;;;7.00;95.50;;;;;;10417015;28;20635;-80
2022/02/05 17:56:16;;;;;;;3.60;3.30;;;6.80;95.60;;;;;;10414885;28;20237;-79
2022/02/05 18:01:20;;;;;;;4.27;3.10;;;6.70;95.80;;;;;;10404210;28;20218;-79
2022/02/05 18:06:30;;;;;;;5.73;3.00;;;6.70;95.60;;;;;;10413781;28;20240;-79
2022/02/05 18:11:34;;;;;;;3.83;2.83;;;6.80;95.90;;;;;;10414717;28;20197;-79
2022/02/05 18:16:38;;;;;;;6.40;4.67;;;6.90;95.70;;;;;;10415773;28;20229;-79
2022/02/05 18:21:41;;;;;;;6.93;4.53;;;7.00;95.50;;;;;;10418547;28;20225;-79
2022/02/05 18:26:45;;;;;;;8.93;4.70;;;7.10;95.10;;;;;;10420872;28;20230;-78
2022/02/05 18:31:49;;;;;;;4.37;3.50;;;7.10;95.50;;;;;;10420548;28;20251;-79
2022/02/05 18:36:52;;;;;;;5.53;3.87;;;7.20;95.50;;;;;;10422209;28;20226;-79
2022/02/05 18:41:54;;;;;;;5.80;3.90;;;7.30;95.30;;;;;;10423925;28;20296;-79
2022/02/05 18:46:57;;;;;;;7.37;3.50;;;7.30;94.40;;;;;;10415761;28;20249;-79
2022/02/05 18:52:00;;;;;;;6.63;3.83;;;7.20;95.00;;;;;;10400676;28;20213;-80
2022/02/05 18:57:04;;;;;;;5.00;3.70;;;7.10;95.60;;;;;;10416917;28;20245;-78
2022/02/05 19:02:30;;;;;;;8.17;4.90;;;7.10;95.70;;;;;;10423911;28;20209;-78
2022/02/05 19:13:03;;;;;;;4.10;3.73;;;7.10;95.70;;;;;;10395559;28;20271;-78
2022/02/05 19:18:16;;;;;;;6.40;4.10;;;7.00;95.90;;;;;;10410616;28;20229;-77
2022/02/05 19:23:21;;;;;;;6.40;4.47;;;6.90;95.80;;;;;;10405661;28;20575;-78
2022/02/05 19:28:25;;;;;;;3.90;3.00;;;6.90;95.90;;;;;;10409799;28;20273;-77
2022/02/05 19:33:28;;;;;;;5.50;3.73;;;6.80;95.90;;;;;;10407839;28;20241;-79
2022/02/05 19:38:32;;;;;;;5.67;3.87;;;6.80;96.20;;;;;;10411599;28;20710;-79
2022/02/05 19:43:39;;;;;;;5.20;4.10;;;6.80;96.00;;;;;;10418023;28;20229;-79
2022/02/05 19:48:42;;;;;;;5.20;3.53;;;6.70;96.50;;;;;;10418396;28;20197;-79
2022/02/05 19:53:44;;;;;;;4.07;3.50;;;6.70;96.50;;;;;;10419905;28;20751;-80
2022/02/05 19:58:46;;;;;;;6.90;3.60;;;6.70;96.70;;;;;;10421794;28;20217;-78
2022/02/05 20:03:50;;;;;;;5.97;3.60;;;6.70;96.60;;;;;;10416707;28;20285;-79
2022/02/05 20:08:52;;;;;;;4.93;3.43;;;6.70;96.00;;;;;;10419460;28;20226;-79
2022/02/05 20:13:59;;;;;;;4.67;3.97;;;6.60;96.50;;;;;;10422393;28;20228;-79
2022/02/05 20:19:03;;;;;;;6.03;3.97;;;6.60;96.50;;;;;;10422060;28;20255;-79
2022/02/05 20:24:07;;;;;;;7.80;4.50;;;6.60;96.90;;;;;;10422423;28;20229;-79
2022/02/05 20:29:09;;;;;;;5.50;4.00;;;6.50;97.30;;;;;;10415886;28;20208;-79
2022/02/05 20:34:15;;;;;;;4.77;3.17;;;6.60;96.80;;;;;;10418889;28;20252;-79
2022/02/05 20:39:17;;;;;;;3.30;3.00;;;6.50;97.40;;;;;;10422529;28;20209;-78
2022/02/05 20:44:19;;;;;;;6.00;3.33;;;6.50;96.80;;;;;;10426111;28;20222;-79
2022/02/05 20:49:23;;;;;;;4.80;3.13;;;6.50;96.60;;;;;;10414926;28;20653;-79
2022/02/05 20:54:31;;;;;;;5.10;3.13;;;6.50;97.10;;;;;;10416535;28;20604;-78
2022/02/05 20:59:34;;;;;;;6.50;3.47;;;6.50;97.20;;;;;;10416113;28;20229;-79
2022/02/05 21:04:44;;;;;;;8.47;3.90;;;6.50;97.60;;;;;;10416416;28;20677;-80
2022/02/05 21:09:46;;;;;;;5.10;4.23;;;6.50;97.30;;;;;;10416808;28;20198;-79
2022/02/05 21:14:48;;;;;;;5.90;3.77;;;6.50;97.90;;;;;;10419288;28;20236;-80
2022/02/05 21:19:51;;;;;;;5.30;3.63;;;6.40;97.80;;;;;;10412166;28;20221;-80
2022/02/05 21:24:54;;;;;;;6.20;4.23;;;6.50;97.50;;;;;;10413317;28;20222;-79
2022/02/05 21:30:01;;;;;;;4.37;3.67;;;6.40;98.60;;;;;;10416059;28;20189;-80
2022/02/05 21:35:09;;;;;;;6.00;3.37;;;6.40;98.40;;;;;;10417714;28;20710;-80
2022/02/05 21:40:12;;;;;;;4.67;2.93;;;6.50;97.50;;;;;;10418701;28;20313;-82
2022/02/05 21:45:14;;;;;;;7.50;3.00;;;6.40;96.80;;;;;;10406813;28;20230;-78
2022/02/05 21:50:18;;;;;;;4.80;2.70;;;6.40;97.00;;;;;;10413364;28;20273;-78
2022/02/05 21:55:25;;;;;;;4.33;3.07;;;6.40;96.40;;;;;;10415206;28;20236;-79
2022/02/05 22:00:31;;;;;;;5.83;3.10;;;6.40;96.40;;;;;;10400097;28;20252;-80
2022/02/05 22:05:35;;;;;;;3.43;3.13;;;6.30;96.80;;;;;;10401006;28;20233;-80
2022/02/05 22:10:37;;;;;;;7.73;3.70;;;6.30;97.80;;;;;;10412542;28;20288;-80
2022/02/05 22:15:39;;;;;;;3.63;3.30;;;6.30;97.50;;;;;;10413268;28;20249;-79
2022/02/05 22:20:44;;;;;;;4.27;3.23;;;6.30;98.00;;;;;;10415661;28;20769;-80
2022/02/05 22:25:46;;;;;;;6.30;3.80;;;6.40;97.70;;;;;;10414272;28;20558;-78
2022/02/05 22:30:48;;;;;;;4.57;3.73;;;6.30;97.30;;;;;;10404625;28;20200;-79
2022/02/05 22:35:52;;;;;;;5.60;3.00;;;6.30;97.40;;;;;;10399965;28;20230;-79
2022/02/05 22:40:55;;;;;;;4.00;3.60;;;6.30;96.70;;;;;;10412180;28;20254;-79
2022/02/05 22:45:57;;;;;;;4.63;3.43;;;6.20;96.20;;;;;;10409573;28;20226;-79
2022/02/05 22:51:00;;;;;;;6.13;2.80;;;6.10;96.20;;;;;;10401071;28;20201;-79
2022/02/05 22:56:02;;;;;;;5.30;3.30;;;6.10;97.00;;;;;;10406472;28;20228;-79
2022/02/05 23:01:06;;;;;;;5.87;2.60;;;6.10;96.40;;;;;;10389771;28;20260;-78
2022/02/05 23:06:09;;;;;;;3.03;2.63;;;6.00;96.50;;;;;;10413161;28;20230;-79
2022/02/05 23:11:26;;;;;;;5.00;2.90;;;6.00;96.30;;;;;;10415192;28;20198;-79
2022/02/05 23:30:03;;;;;;;5.37;3.67;;;5.90;96.40;;;;;;10412142;28;20249;-79
2022/02/05 23:43:25;;;;;;;4.90;2.50;;;5.80;96.90;;;;;;10373360;28;20218;-78
2022/02/05 23:48:29;;;;;;;5.93;3.20;;;5.70;96.60;;;;;;10411761;28;20289;-79
2022/02/05 23:53:33;;;;;;;4.83;2.90;;;5.70;96.30;;;;;;10412541;28;20309;-79
2022/02/05 23:58:35;;;;;;;3.33;2.80;;;5.70;96.50;;;;;;10409890;28;20635;-79
